createdAt,value
2023-01-30T00:01:19.369Z,-1.14
2023-01-30T00:03:46.368Z,-1.35
2023-01-30T00:06:13.273Z,-0.95
2023-01-30T00:08:40.070Z,-1.26
2023-01-30T00:11:08.991Z,-1.24
2023-01-30T00:13:36.291Z,-1.14
2023-01-30T00:16:03.154Z,-0.86
2023-01-30T00:18:29.902Z,-0.56
2023-01-30T00:20:57.459Z,-0.51
2023-01-30T00:23:25.376Z,-0.72
2023-01-30T00:25:52.208Z,-0.92
2023-01-30T00:28:18.955Z,-1.14
2023-01-30T00:30:48.299Z,-1.16
2023-01-30T00:33:14.808Z,-1.18
2023-01-30T00:35:46.026Z,-0.77
2023-01-30T00:38:13.823Z,-0.92
2023-01-30T00:40:40.372Z,-0.79
2023-01-30T00:43:25.612Z,-1.10
2023-01-30T00:46:13.379Z,-0.92
2023-01-30T00:48:39.907Z,-1.17
2023-01-30T00:51:06.442Z,-1.27
2023-01-30T00:56:13.084Z,-1.48
2023-01-30T00:58:39.563Z,-1.57
2023-01-30T01:01:06.205Z,-1.74
2023-01-30T01:03:32.975Z,-1.41
2023-01-30T01:05:59.499Z,-1.24
2023-01-30T01:08:26.086Z,-1.02
2023-01-30T01:10:52.631Z,-1.04
2023-01-30T01:13:19.236Z,-1.18
2023-01-30T01:15:45.805Z,-1.23
2023-01-30T01:18:12.356Z,-1.17
2023-01-30T01:20:38.943Z,-1.20
2023-01-30T01:23:05.504Z,-1.11
2023-01-30T01:25:32.110Z,-1.09
2023-01-30T01:27:58.732Z,-0.88
2023-01-30T01:30:25.356Z,-1.15
2023-01-30T01:32:51.933Z,-1.06
2023-01-30T01:35:20.289Z,-1.05
2023-01-30T01:37:47.205Z,-0.88
2023-01-30T01:40:37.607Z,-0.99
2023-01-30T01:43:19.682Z,-0.80
2023-01-30T01:45:49.887Z,-0.97
2023-01-30T01:48:27.003Z,-0.95
2023-01-30T01:51:04.195Z,-0.93
2023-01-30T01:53:35.461Z,-0.91
2023-01-30T01:56:04.151Z,-0.90
2023-01-30T01:58:40.960Z,-0.80
2023-01-30T02:01:08.087Z,-0.80
2023-01-30T02:06:18.923Z,-0.82
2023-01-30T02:08:58.261Z,-0.82
2023-01-30T02:11:33.534Z,-0.73
2023-01-30T02:14:02.370Z,-0.81
2023-01-30T02:16:28.962Z,-0.75
2023-01-30T02:18:55.855Z,-0.57
2023-01-30T02:21:57.898Z,-0.57
2023-01-30T02:24:57.028Z,-0.67
2023-01-30T02:28:11.674Z,-0.67
2023-01-30T02:31:05.381Z,-0.55
2023-01-30T02:33:41.289Z,-0.53
2023-01-30T02:36:21.615Z,-0.55
2023-01-30T02:39:20.420Z,-0.59
2023-01-30T02:42:05.767Z,-0.58
2023-01-30T02:44:50.699Z,-0.62
2023-01-30T02:47:33.763Z,-0.40
2023-01-30T02:50:10.836Z,-0.48
2023-01-30T02:52:37.721Z,-0.56
2023-01-30T02:55:10.749Z,-0.47
2023-01-30T02:57:37.319Z,-0.47
2023-01-30T03:00:05.924Z,-0.43
2023-01-30T03:02:44.725Z,-0.68
2023-01-30T03:05:40.362Z,-0.60
2023-01-30T03:08:25.207Z,-0.84
2023-01-30T03:11:08.400Z,-0.90
2023-01-30T03:13:35.188Z,-0.85
2023-01-30T03:16:26.497Z,-0.93
2023-01-30T03:18:53.368Z,-0.67
2023-01-30T03:21:20.043Z,-0.63
2023-01-30T03:23:47.156Z,-0.76
2023-01-30T03:26:25.518Z,-0.80
2023-01-30T03:28:53.085Z,-0.77
2023-01-30T03:31:19.660Z,-0.81
2023-01-30T03:36:17.709Z,-0.80
2023-01-30T03:38:44.393Z,-0.83
2023-01-30T03:41:11.068Z,-0.78
2023-01-30T03:43:37.596Z,-0.77
2023-01-30T03:46:04.408Z,-0.63
2023-01-30T03:51:09.297Z,-0.46
2023-01-30T03:53:35.858Z,-0.35
2023-01-30T03:56:02.619Z,-0.20
2023-01-30T03:58:29.360Z,-0.23
2023-01-30T04:00:57.581Z,-0.27
2023-01-30T04:03:24.682Z,-0.23
2023-01-30T04:05:51.237Z,-0.15
2023-01-30T04:08:17.804Z,-0.26
2023-01-30T04:10:44.329Z,-0.14
2023-01-30T04:13:10.884Z,-0.13
2023-01-30T04:15:37.397Z,-0.06
2023-01-30T04:18:04.135Z,-0.12
2023-01-30T04:20:30.703Z,-0.02
2023-01-30T04:22:57.441Z,0.16
2023-01-30T04:25:23.994Z,0.26
2023-01-30T04:27:50.604Z,0.31
2023-01-30T04:30:17.514Z,0.32
2023-01-30T04:32:44.262Z,0.43
2023-01-30T04:35:11.271Z,0.40
2023-01-30T04:37:37.831Z,0.40
2023-01-30T04:40:05.262Z,0.44
2023-01-30T04:42:31.920Z,0.53
2023-01-30T04:44:58.462Z,0.52
2023-01-30T04:47:24.978Z,0.59
2023-01-30T04:49:51.505Z,0.58
2023-01-30T04:52:18.048Z,0.68
2023-01-30T04:54:44.617Z,0.63
2023-01-30T04:57:11.101Z,0.59
2023-01-30T04:59:37.901Z,0.73
2023-01-30T05:02:04.440Z,0.64
2023-01-30T05:04:31.117Z,0.68
2023-01-30T05:06:57.637Z,0.68
2023-01-30T05:09:24.250Z,0.66
2023-01-30T05:11:50.836Z,0.69
2023-01-30T05:14:17.498Z,0.75
2023-01-30T05:16:44.028Z,0.91
2023-01-30T05:19:12.685Z,0.95
2023-01-30T05:21:39.283Z,0.81
2023-01-30T05:24:06.446Z,0.85
2023-01-30T05:26:33.040Z,0.85
2023-01-30T05:28:59.668Z,0.85
2023-01-30T05:31:26.380Z,0.99
2023-01-30T05:33:53.388Z,0.95
2023-01-30T05:36:21.480Z,1.04
2023-01-30T05:38:48.124Z,1.13
2023-01-30T05:41:16.579Z,1.15
2023-01-30T05:43:43.646Z,1.08
2023-01-30T05:46:12.577Z,1.13
2023-01-30T05:48:39.689Z,1.22
2023-01-30T05:51:06.614Z,1.24
2023-01-30T05:53:35.181Z,1.20
2023-01-30T05:58:36.880Z,1.29
2023-01-30T06:01:05.670Z,1.15
2023-01-30T06:03:32.797Z,1.22
2023-01-30T06:06:02.223Z,1.24
2023-01-30T06:08:28.842Z,1.25
2023-01-30T06:10:55.367Z,1.18
2023-01-30T06:13:21.894Z,1.26
2023-01-30T06:15:48.574Z,1.19
2023-01-30T06:18:15.297Z,1.26
2023-01-30T06:20:41.821Z,1.26
2023-01-30T06:23:08.376Z,1.23
2023-01-30T06:25:35.008Z,1.22
2023-01-30T06:28:01.597Z,1.32
2023-01-30T06:30:28.123Z,1.30
2023-01-30T06:32:54.696Z,1.29
2023-01-30T06:35:21.498Z,1.26
2023-01-30T06:40:25.813Z,1.38
2023-01-30T06:42:52.398Z,1.35
2023-01-30T06:45:19.744Z,1.22
2023-01-30T06:47:48.748Z,1.26
2023-01-30T06:50:16.850Z,1.15
2023-01-30T06:52:44.950Z,1.29
2023-01-30T06:55:13.904Z,1.19
2023-01-30T06:57:40.766Z,1.26
2023-01-30T07:00:11.770Z,1.58
2023-01-30T07:02:38.342Z,1.37
2023-01-30T07:05:06.264Z,1.47
2023-01-30T07:07:33.372Z,1.44
2023-01-30T07:10:07.750Z,1.53
2023-01-30T07:12:36.245Z,1.48
2023-01-30T07:17:37.265Z,1.51
2023-01-30T07:20:04.000Z,1.56
2023-01-30T07:22:30.511Z,1.54
2023-01-30T07:24:57.022Z,1.49
2023-01-30T07:27:23.574Z,1.51
2023-01-30T07:32:22.825Z,1.48
2023-01-30T07:34:49.501Z,1.52
2023-01-30T07:37:16.051Z,1.55
2023-01-30T07:39:42.582Z,1.52
2023-01-30T07:42:09.301Z,1.52
2023-01-30T07:44:35.950Z,1.54
2023-01-30T07:47:02.553Z,1.46
2023-01-30T07:49:29.178Z,1.53
2023-01-30T07:51:55.759Z,1.63
2023-01-30T07:54:22.616Z,1.65
2023-01-30T07:56:49.179Z,1.68
2023-01-30T07:59:15.963Z,1.72
2023-01-30T08:01:42.530Z,1.65
2023-01-30T08:04:09.222Z,1.69
2023-01-30T08:06:39.361Z,1.81
2023-01-30T08:09:06.972Z,1.73
2023-01-30T08:11:34.211Z,1.78
2023-01-30T08:14:00.939Z,1.76
2023-01-30T08:16:27.611Z,1.76
2023-01-30T08:18:54.292Z,1.78
2023-01-30T08:21:20.956Z,1.76
2023-01-30T08:23:47.542Z,1.71
2023-01-30T08:26:14.168Z,1.80
2023-01-30T08:28:41.124Z,1.74
2023-01-30T08:31:15.305Z,1.75
2023-01-30T08:33:42.249Z,1.85
2023-01-30T08:36:09.327Z,1.82
2023-01-30T08:38:36.021Z,1.91
2023-01-30T08:41:05.267Z,1.90
2023-01-30T08:43:31.823Z,1.80
2023-01-30T08:45:58.371Z,1.89
2023-01-30T08:48:24.898Z,1.89
2023-01-30T08:50:55.839Z,1.92
2023-01-30T08:53:22.731Z,2.01
2023-01-30T08:55:53.213Z,2.01
2023-01-30T08:58:22.977Z,1.98
2023-01-30T09:00:50.621Z,2.09
2023-01-30T09:03:18.623Z,2.14
2023-01-30T09:05:45.577Z,2.13
2023-01-30T09:08:13.057Z,2.19
2023-01-30T09:10:39.674Z,2.18
2023-01-30T09:13:09.710Z,2.28
2023-01-30T09:15:36.749Z,2.38
2023-01-30T09:18:04.702Z,2.44
2023-01-30T09:20:31.250Z,2.48
2023-01-30T09:22:57.956Z,2.46
2023-01-30T09:25:24.482Z,2.46
2023-01-30T09:27:51.082Z,2.42
2023-01-30T09:30:18.470Z,2.39
2023-01-30T09:32:45.498Z,2.39
2023-01-30T09:35:12.225Z,2.48
2023-01-30T09:37:38.743Z,2.43
2023-01-30T09:40:06.200Z,2.43
2023-01-30T09:42:50.709Z,2.49
2023-01-30T09:45:26.040Z,2.51
2023-01-30T09:48:10.325Z,2.56
2023-01-30T09:51:00.315Z,2.53
2023-01-30T09:53:51.812Z,2.52
2023-01-30T09:56:18.441Z,2.55
2023-01-30T09:58:51.592Z,2.67
2023-01-30T10:01:42.341Z,2.57
2023-01-30T10:04:15.485Z,2.69
2023-01-30T10:06:56.306Z,2.70
2023-01-30T10:09:44.628Z,2.75
2023-01-30T10:12:28.999Z,2.82
2023-01-30T10:15:06.942Z,2.82
2023-01-30T10:17:55.449Z,2.91
2023-01-30T10:20:35.582Z,2.92
2023-01-30T10:23:18.616Z,3.00
2023-01-30T10:25:55.705Z,3.08
2023-01-30T10:28:30.471Z,3.02
2023-01-30T10:31:07.147Z,3.01
2023-01-30T10:33:40.018Z,3.08
2023-01-30T10:36:08.586Z,3.12
2023-01-30T10:38:41.147Z,3.12
2023-01-30T10:41:13.851Z,3.14
2023-01-30T10:43:44.645Z,3.20
2023-01-30T10:46:23.935Z,3.25
2023-01-30T10:49:06.224Z,3.31
2023-01-30T10:52:02.048Z,3.39
2023-01-30T10:54:42.846Z,3.44
2023-01-30T10:57:25.036Z,3.47
2023-01-30T11:00:05.654Z,3.54
2023-01-30T11:02:39.867Z,3.50
2023-01-30T11:05:39.618Z,3.48
2023-01-30T11:08:18.157Z,3.52
2023-01-30T11:10:44.670Z,3.56
2023-01-30T11:13:19.470Z,3.54
2023-01-30T11:19:16.648Z,3.56
2023-01-30T11:21:19.837Z,3.59
2023-01-30T11:23:46.396Z,3.57
2023-01-30T11:26:47.712Z,3.59
2023-01-30T11:29:30.212Z,3.61
2023-01-30T11:32:01.825Z,3.66
2023-01-30T11:34:28.573Z,3.66
2023-01-30T11:37:13.366Z,3.64
2023-01-30T11:39:48.957Z,3.62
2023-01-30T11:42:19.513Z,3.58
2023-01-30T11:44:46.392Z,3.65
2023-01-30T11:47:23.773Z,3.58
2023-01-30T11:49:59.098Z,3.56
2023-01-30T11:52:31.673Z,3.51
2023-01-30T11:55:03.341Z,3.45
2023-01-30T11:57:29.952Z,3.40
2023-01-30T12:00:01.256Z,3.45
2023-01-30T12:02:37.522Z,3.35
2023-01-30T12:05:18.222Z,3.38
2023-01-30T12:07:46.694Z,3.40
2023-01-30T12:10:29.941Z,3.36
2023-01-30T12:13:01.168Z,3.37
2023-01-30T12:15:31.088Z,3.51
2023-01-30T12:18:23.614Z,3.52
2023-01-30T12:20:59.759Z,3.51
2023-01-30T12:23:56.631Z,3.47
2023-01-30T12:26:33.829Z,3.24
2023-01-30T12:29:13.868Z,3.23
2023-01-30T12:31:50.468Z,3.25
2023-01-30T12:34:17.116Z,3.24
2023-01-30T12:37:04.824Z,3.25
2023-01-30T12:39:42.370Z,3.32
2023-01-30T12:45:20.523Z,3.20
2023-01-30T12:48:14.956Z,3.19
2023-01-30T12:50:59.724Z,3.20
2023-01-30T12:53:31.656Z,3.17
2023-01-30T12:56:32.426Z,3.54
2023-01-30T12:59:05.132Z,3.37
2023-01-30T13:02:05.540Z,3.34
2023-01-30T13:04:56.856Z,3.21
2023-01-30T13:07:40.724Z,3.28
2023-01-30T13:10:16.751Z,3.34
2023-01-30T13:12:55.961Z,3.36
2023-01-30T13:15:45.278Z,3.28
2023-01-30T13:18:20.688Z,3.40
2023-01-30T13:21:18.893Z,3.44
2023-01-30T13:24:21.978Z,3.27
2023-01-30T13:29:32.849Z,3.46
2023-01-30T13:32:03.389Z,3.46
2023-01-30T13:34:45.826Z,3.35
2023-01-30T13:37:19.931Z,3.42
2023-01-30T13:39:58.811Z,3.46
2023-01-30T13:42:43.723Z,3.50
2023-01-30T13:45:21.226Z,3.50
2023-01-30T13:48:12.559Z,3.52
2023-01-30T13:51:09.621Z,3.53
2023-01-30T13:53:51.200Z,3.41
2023-01-30T13:56:40.294Z,3.57
2023-01-30T13:59:44.724Z,3.51
2023-01-30T14:02:22.505Z,3.50
2023-01-30T14:04:56.463Z,3.50
2023-01-30T14:07:32.412Z,3.64
2023-01-30T14:10:12.659Z,3.68
2023-01-30T14:12:52.925Z,3.73
2023-01-30T14:15:29.226Z,3.79
2023-01-30T14:17:59.336Z,3.87
2023-01-30T14:20:28.458Z,3.88
2023-01-30T14:23:01.851Z,3.85
2023-01-30T14:25:28.599Z,3.88
2023-01-30T14:28:17.786Z,3.86
2023-01-30T14:30:44.290Z,3.86
2023-01-30T14:33:22.976Z,3.88
2023-01-30T14:36:15.310Z,3.93
2023-01-30T14:38:44.549Z,3.97
2023-01-30T14:41:26.946Z,3.93
2023-01-30T14:43:54.298Z,3.97
2023-01-30T14:46:21.005Z,3.98
2023-01-30T14:49:25.076Z,3.98
2023-01-30T14:51:53.621Z,4.03
2023-01-30T14:54:33.330Z,3.94
2023-01-30T14:57:19.345Z,4.03
2023-01-30T14:59:45.831Z,4.02
2023-01-30T15:02:12.382Z,4.11
2023-01-30T15:04:46.221Z,4.05
2023-01-30T15:07:22.818Z,4.13
2023-01-30T15:10:01.843Z,4.08
2023-01-30T15:12:57.673Z,4.10
2023-01-30T15:15:27.132Z,4.11
2023-01-30T15:21:14.125Z,4.04
2023-01-30T15:24:18.151Z,4.11
2023-01-30T15:26:44.696Z,4.25
2023-01-30T15:29:24.297Z,4.27
2023-01-30T15:31:59.147Z,4.18
2023-01-30T15:34:34.309Z,4.13
2023-01-30T15:37:00.909Z,4.02
2023-01-30T15:39:28.656Z,3.97
2023-01-30T15:42:05.505Z,4.02
2023-01-30T15:44:45.208Z,4.01
2023-01-30T15:47:26.922Z,3.98
2023-01-30T15:52:46.622Z,3.92
2023-01-30T15:55:32.259Z,3.87
2023-01-30T15:58:06.422Z,3.87
2023-01-30T16:00:36.412Z,3.91
2023-01-30T16:03:06.258Z,3.96
2023-01-30T16:05:32.892Z,3.88
2023-01-30T16:08:10.818Z,3.91
2023-01-30T16:10:44.492Z,3.99
2023-01-30T16:13:11.020Z,4.31
2023-01-30T16:15:46.458Z,4.24
2023-01-30T16:18:32.403Z,4.21
2023-01-30T16:21:06.682Z,4.03
2023-01-30T16:23:41.407Z,4.03
2023-01-30T16:26:14.187Z,4.00
2023-01-30T16:28:41.075Z,3.92
2023-01-30T16:31:10.244Z,4.01
2023-01-30T16:36:20.296Z,3.88
2023-01-30T16:38:48.502Z,3.93
2023-01-30T16:41:42.964Z,3.89
2023-01-30T16:44:27.185Z,4.12
2023-01-30T16:47:18.461Z,4.26
2023-01-30T16:49:48.353Z,4.13
2023-01-30T16:52:26.147Z,3.99
2023-01-30T16:54:55.142Z,4.01
2023-01-30T16:57:36.714Z,3.96
2023-01-30T17:00:19.938Z,3.97
2023-01-30T17:02:58.870Z,3.94
2023-01-30T17:05:31.088Z,4.02
2023-01-30T17:07:58.528Z,3.98
2023-01-30T17:10:27.710Z,3.94
2023-01-30T17:12:55.858Z,3.97
2023-01-30T17:15:22.411Z,4.04
2023-01-30T17:17:48.935Z,4.05
2023-01-30T17:20:19.036Z,3.98
2023-01-30T17:22:48.620Z,4.01
2023-01-30T17:25:41.198Z,3.94
2023-01-30T17:28:09.803Z,3.96
2023-01-30T17:30:36.339Z,3.92
2023-01-30T17:33:02.928Z,4.13
2023-01-30T17:35:29.517Z,4.05
2023-01-30T17:38:04.809Z,4.14
2023-01-30T17:40:34.723Z,4.10
2023-01-30T17:43:01.321Z,3.96
2023-01-30T17:45:28.049Z,4.00
2023-01-30T17:47:55.223Z,3.91
2023-01-30T17:50:21.980Z,3.81
2023-01-30T17:52:48.761Z,3.78
2023-01-30T17:55:15.486Z,3.77
2023-01-30T17:57:44.676Z,3.73
2023-01-30T18:00:19.805Z,3.73
2023-01-30T18:02:46.798Z,3.70
2023-01-30T18:05:13.543Z,3.65
2023-01-30T18:07:41.059Z,3.70
2023-01-30T18:10:11.971Z,3.70
2023-01-30T18:12:38.617Z,3.68
2023-01-30T18:15:05.706Z,3.69
2023-01-30T18:17:32.598Z,3.71
2023-01-30T18:20:01.155Z,3.67
2023-01-30T18:22:27.714Z,3.62
2023-01-30T18:24:54.202Z,3.65
2023-01-30T18:27:20.769Z,3.73
2023-01-30T18:29:47.334Z,3.66
2023-01-30T18:32:13.848Z,3.70
2023-01-30T18:34:40.472Z,3.74
2023-01-30T18:37:07.034Z,3.70
2023-01-30T18:39:34.879Z,3.68
2023-01-30T18:42:03.141Z,3.78
2023-01-30T18:44:29.860Z,3.72
2023-01-30T18:46:56.400Z,3.74
2023-01-30T18:49:22.929Z,3.73
2023-01-30T18:51:49.590Z,3.65
2023-01-30T18:54:16.169Z,3.72
2023-01-30T18:56:42.712Z,3.71
2023-01-30T18:59:09.952Z,4.08
2023-01-30T19:01:39.021Z,3.78
2023-01-30T19:04:08.287Z,3.73
2023-01-30T19:06:39.910Z,3.80
2023-01-30T19:09:07.143Z,3.85
2023-01-30T19:11:52.756Z,4.39
2023-01-30T19:14:19.501Z,4.09
2023-01-30T19:16:46.313Z,4.05
2023-01-30T19:19:13.044Z,3.98
2023-01-30T19:21:39.786Z,3.98
2023-01-30T19:24:08.093Z,3.82
2023-01-30T19:26:35.038Z,3.87
2023-01-30T19:29:01.849Z,3.92
2023-01-30T19:31:28.609Z,3.88
2023-01-30T19:33:58.428Z,3.92
2023-01-30T19:36:27.449Z,3.92
2023-01-30T19:38:54.349Z,3.93
2023-01-30T19:41:27.016Z,3.95
2023-01-30T19:43:55.214Z,3.84
2023-01-30T19:46:22.435Z,3.86
2023-01-30T19:48:49.412Z,3.82
2023-01-30T19:51:20.570Z,3.81
2023-01-30T19:53:54.927Z,3.86
2023-01-30T19:56:22.753Z,3.91
2023-01-30T19:58:52.605Z,3.92
2023-01-30T20:01:20.632Z,3.90
2023-01-30T20:03:47.492Z,3.86
2023-01-30T20:06:22.519Z,3.88
2023-01-30T20:08:53.136Z,3.93
2023-01-30T20:11:23.278Z,3.87
2023-01-30T20:13:51.041Z,3.92
2023-01-30T20:19:02.072Z,3.90
2023-01-30T20:21:30.559Z,3.90
2023-01-30T20:23:58.091Z,3.89
2023-01-30T20:26:26.748Z,3.93
2023-01-30T20:28:57.037Z,4.02
2023-01-30T20:31:26.242Z,3.96
2023-01-30T20:33:55.841Z,3.95
2023-01-30T20:36:22.567Z,3.92
2023-01-30T20:41:24.735Z,3.92
2023-01-30T20:43:53.979Z,4.01
2023-01-30T20:46:27.302Z,3.96
2023-01-30T20:48:55.958Z,4.05
2023-01-30T20:51:25.233Z,3.95
2023-01-30T20:53:55.173Z,3.92
2023-01-30T20:56:23.922Z,3.97
2023-01-30T20:58:50.895Z,3.97
2023-01-30T21:01:23.173Z,3.92
2023-01-30T21:03:52.411Z,3.95
2023-01-30T21:09:05.022Z,3.97
2023-01-30T21:11:32.327Z,4.02
2023-01-30T21:13:59.154Z,4.25
2023-01-30T21:16:29.264Z,4.15
2023-01-30T21:21:40.780Z,4.02
2023-01-30T21:24:11.089Z,3.96
2023-01-30T21:26:39.966Z,3.94
2023-01-30T21:29:08.457Z,3.99
2023-01-30T21:31:36.077Z,3.98
2023-01-30T21:34:03.157Z,3.96
2023-01-30T21:36:29.893Z,3.97
2023-01-30T21:39:15.528Z,3.99
2023-01-30T21:42:03.190Z,4.09
2023-01-30T21:44:34.266Z,4.02
2023-01-30T21:47:01.288Z,3.91
2023-01-30T21:49:28.192Z,3.90
2023-01-30T21:51:55.003Z,3.93
2023-01-30T21:54:22.621Z,3.89
2023-01-30T21:56:49.959Z,3.92
2023-01-30T21:59:16.968Z,3.94
2023-01-30T22:01:44.110Z,3.98
2023-01-30T22:04:16.397Z,4.02
2023-01-30T22:09:16.002Z,3.95
2023-01-30T22:11:43.237Z,4.08
2023-01-30T22:14:13.449Z,3.99
2023-01-30T22:16:40.580Z,4.01
2023-01-30T22:19:07.595Z,4.11
2023-01-30T22:21:37.483Z,4.01
2023-01-30T22:24:05.672Z,4.06
2023-01-30T22:26:32.638Z,4.06
2023-01-30T22:29:00.795Z,4.03
2023-01-30T22:31:31.368Z,4.02
2023-01-30T22:33:58.105Z,4.01
2023-01-30T22:36:29.202Z,3.95
2023-01-30T22:38:56.279Z,3.92
2023-01-30T22:41:25.731Z,3.97
2023-01-30T22:43:55.586Z,3.93
2023-01-30T22:46:26.833Z,3.98
2023-01-30T22:48:54.273Z,3.94
2023-01-30T22:51:25.871Z,3.90
2023-01-30T22:53:55.113Z,3.86
2023-01-30T22:56:24.633Z,3.87
2023-01-30T22:58:51.357Z,3.97
2023-01-30T23:01:19.621Z,3.96
2023-01-30T23:03:47.881Z,3.98
2023-01-30T23:06:17.095Z,4.03
2023-01-30T23:08:46.924Z,4.01
2023-01-30T23:11:21.749Z,4.02
2023-01-30T23:13:50.489Z,4.05
2023-01-30T23:16:20.111Z,4.10
2023-01-30T23:21:28.654Z,4.09
2023-01-30T23:23:58.072Z,4.07
2023-01-30T23:26:26.029Z,4.06
2023-01-30T23:28:53.111Z,4.03
2023-01-30T23:31:22.962Z,3.98
2023-01-30T23:33:54.726Z,3.95
2023-01-30T23:36:22.048Z,4.03
2023-01-30T23:38:53.841Z,3.94
2023-01-30T23:41:25.235Z,4.03
2023-01-30T23:43:52.191Z,3.98
2023-01-30T23:46:24.125Z,3.99
2023-01-30T23:48:56.035Z,3.95
2023-01-30T23:51:25.060Z,4.03
2023-01-30T23:53:52.350Z,3.93
2023-01-30T23:56:20.396Z,3.94
2023-01-30T23:58:48.457Z,3.92
